Time;durP1;ratioP1;P1;durP2;ratioP2;P2;SDS_P1;SDS_P2;PMS_P1;PMS_P2;Temp;Humidity;BMP_temperature;BMP_pressure;BME280_temperature;BME280_humidity;BME280_pressure;Samples;Min_cycle;Max_cycle;Signal;HPM_P1;HPM_P2
2023/04/08 00:00:05;;;;;;;30.77;15.10;;;;;;;7.12;100.00;102114.47;5043600;28;20041;-63
2023/04/08 00:02:30;;;;;;;33.75;15.02;;;;;;;7.11;100.00;102118.06;5043732;28;20451;-64
2023/04/08 00:04:55;;;;;;;31.20;15.07;;;;;;;7.11;100.00;102112.81;5036037;28;20098;-64
2023/04/08 00:07:21;;;;;;;36.85;16.02;;;;;;;7.11;100.00;102115.44;5043818;28;20043;-63
2023/04/08 00:09:46;;;;;;;30.17;16.13;;;;;;;7.12;100.00;102111.03;5045544;28;20116;-64
2023/04/08 00:12:11;;;;;;;27.40;15.10;;;;;;;7.10;100.00;102111.13;5042411;28;20039;-64
2023/04/08 00:14:37;;;;;;;32.58;15.95;;;;;;;7.09;100.00;102114.72;5043941;28;20029;-64
2023/04/08 00:17:02;;;;;;;32.53;16.70;;;;;;;7.10;100.00;102110.25;5044744;28;20029;-64
2023/04/08 00:19:28;;;;;;;29.35;16.02;;;;;;;7.10;100.00;102111.13;5048896;28;20124;-64
2023/04/08 00:21:53;;;;;;;33.33;15.75;;;;;;;7.09;100.00;102106.81;5044511;28;20033;-64
2023/04/08 00:24:19;;;;;;;33.17;16.10;;;;;;;7.09;100.00;102114.72;5044628;28;20454;-63
2023/04/08 00:26:44;;;;;;;32.47;16.67;;;;;;;7.10;100.00;102111.13;5043759;28;20037;-64
2023/04/08 00:29:09;;;;;;;32.83;16.42;;;;;;;7.12;100.00;102111.84;5042490;28;20443;-63
2023/04/08 00:31:35;;;;;;;33.70;16.77;;;;;;;7.11;100.00;102112.81;5043950;28;20029;-63
2023/04/08 00:34:00;;;;;;;30.70;16.20;;;;;;;7.12;100.00;102114.47;5043505;28;20033;-64
2023/04/08 00:36:26;;;;;;;32.10;17.02;;;;;;;7.10;100.00;102111.13;5042590;28;20107;-63
2023/04/08 00:38:51;;;;;;;34.95;16.77;;;;;;;7.11;100.00;102110.16;5044575;28;20440;-64
2023/04/08 00:41:17;;;;;;;34.13;16.98;;;;;;;7.10;100.00;102111.13;5044350;28;20508;-63
2023/04/08 00:43:42;;;;;;;35.72;17.73;;;;;;;7.10;100.00;102111.13;5045420;28;20388;-64
2023/04/08 00:46:08;;;;;;;38.70;18.23;;;;;;;7.11;100.00;102118.06;5041841;28;20057;-63
2023/04/08 00:48:33;;;;;;;35.22;17.85;;;;;;;7.12;100.00;102122.41;5033084;28;20045;-64
2023/04/08 00:50:59;;;;;;;34.92;18.65;;;;;;;7.13;100.00;102121.47;5045323;28;20461;-63
2023/04/08 00:53:24;;;;;;;34.75;18.50;;;;;;;7.16;100.00;102122.19;5041749;28;20800;-63
2023/04/08 00:55:50;;;;;;;32.47;17.98;;;;;;;7.16;100.00;102123.06;5042574;28;20041;-64
2023/04/08 00:58:15;;;;;;;38.08;19.27;;;;;;;7.17;100.00;102121.25;5045272;28;20036;-63
2023/04/08 01:00:58;;;;;;;36.25;19.77;;;;;;;7.15;100.00;102118.69;5044272;28;20064;-63
2023/04/08 01:03:28;;;;;;;37.17;18.90;;;;;;;7.19;100.00;102121.97;5042400;28;20070;-64
2023/04/08 01:06:05;;;;;;;37.10;20.02;;;;;;;7.17;100.00;102124.72;5043409;28;20028;-63
2023/04/08 01:08:34;;;;;;;37.42;20.05;;;;;;;7.16;100.00;102117.78;5044414;28;20550;-63
2023/04/08 01:11:01;;;;;;;37.67;21.02;;;;;;;7.18;100.00;102122.94;5039682;28;20021;-64
2023/04/08 01:13:30;;;;;;;40.22;21.48;;;;;;;7.21;100.00;102133.28;5041850;28;20028;-64
2023/04/08 01:15:56;;;;;;;39.72;20.48;;;;;;;7.23;100.00;102126.09;5043074;28;20116;-64
2023/04/08 01:18:22;;;;;;;41.50;20.70;;;;;;;7.23;100.00;102126.94;5037504;28;20194;-64
2023/04/08 01:20:50;;;;;;;43.30;21.63;;;;;;;7.23;100.00;102120.81;5043817;28;20036;-64
2023/04/08 01:23:43;;;;;;;39.47;20.45;;;;;;;7.26;100.00;102123.25;5043109;28;20115;-63
2023/04/08 01:26:20;;;;;;;41.47;20.98;;;;;;;7.25;100.00;102130.31;5041507;28;20036;-63
2023/04/08 01:28:47;;;;;;;41.83;21.98;;;;;;;7.26;100.00;102131.16;5044200;28;20068;-64
2023/04/08 01:31:13;;;;;;;40.42;21.23;;;;;;;7.27;100.00;102130.22;5043602;28;20035;-63
2023/04/08 01:33:40;;;;;;;42.65;22.15;;;;;;;7.26;100.00;102125.88;5043528;28;20068;-63
2023/04/08 01:36:06;;;;;;;41.25;21.95;;;;;;;7.26;100.00;102136.44;5042652;28;20070;-63
2023/04/08 01:38:32;;;;;;;44.92;22.40;;;;;;;7.26;100.00;102133.81;5044325;28;20660;-63
2023/04/08 01:40:58;;;;;;;41.13;21.88;;;;;;;7.25;100.00;102129.44;5037432;28;20736;-64
2023/04/08 01:43:25;;;;;;;44.70;23.27;;;;;;;7.25;100.00;102134.72;5042519;28;20040;-64
2023/04/08 01:45:56;;;;;;;41.95;22.73;;;;;;;7.27;100.00;102135.47;5041313;28;20060;-63
2023/04/08 01:48:22;;;;;;;41.20;23.42;;;;;;;7.26;100.00;102139.91;5044193;28;20400;-64
2023/04/08 01:50:50;;;;;;;43.13;23.52;;;;;;;7.25;100.00;102138.22;5043710;28;20461;-64
2023/04/08 01:53:16;;;;;;;48.10;24.75;;;;;;;7.26;100.00;102137.25;5043379;28;20114;-63
2023/04/08 01:55:42;;;;;;;46.28;24.75;;;;;;;7.24;100.00;102138.31;5041355;28;20040;-64
2023/04/08 01:58:11;;;;;;;43.50;24.80;;;;;;;7.23;100.00;102141.91;5039528;28;20499;-63
2023/04/08 02:00:39;;;;;;;43.22;24.48;;;;;;;7.25;100.00;102140.00;5038573;28;20071;-64
2023/04/08 02:03:06;;;;;;;47.63;25.90;;;;;;;7.23;100.00;102134.84;5032951;28;20029;-63
2023/04/08 02:05:32;;;;;;;45.22;25.83;;;;;;;7.23;100.00;102137.50;5042860;28;20044;-64
2023/04/08 02:07:58;;;;;;;44.88;25.88;;;;;;;7.23;100.00;102137.50;5041920;28;20037;-64
2023/04/08 02:10:23;;;;;;;47.78;25.77;;;;;;;7.23;100.00;102136.63;5042076;28;20112;-63
2023/04/08 02:12:48;;;;;;;48.10;26.05;;;;;;;7.24;100.00;102138.31;5040326;28;20037;-63
2023/04/08 02:15:14;;;;;;;48.75;25.90;;;;;;;7.24;100.00;102138.31;5041428;28;20037;-64
2023/04/08 02:17:51;;;;;;;50.10;26.52;;;;;;;7.24;100.00;102146.25;5042146;28;21006;-64
2023/04/08 02:20:26;;;;;;;50.08;27.52;;;;;;;7.21;100.00;102136.75;5041860;28;20079;-64
2023/04/08 02:23:18;;;;;;;47.60;26.52;;;;;;;7.23;100.00;102144.56;5041950;28;20037;-64
2023/04/08 02:25:44;;;;;;;46.17;26.58;;;;;;;7.24;100.00;102143.59;5044270;28;20033;-64
2023/04/08 02:28:11;;;;;;;44.67;25.77;;;;;;;7.21;100.00;102138.56;5046100;28;20040;-63
2023/04/08 02:30:42;;;;;;;47.80;26.75;;;;;;;7.19;100.00;102146.56;5040561;28;20041;-63
2023/04/08 02:33:09;;;;;;;47.05;26.42;;;;;;;7.21;100.00;102144.66;5046490;28;20499;-64
2023/04/08 02:35:37;;;;;;;46.63;26.50;;;;;;;7.19;100.00;102146.56;5042249;28;20025;-64
2023/04/08 02:38:03;;;;;;;47.55;28.17;;;;;;;7.20;100.00;102147.44;5046500;28;20065;-63
2023/04/08 02:40:32;;;;;;;45.20;27.70;;;;;;;7.20;100.00;102153.53;5042786;28;20164;-64
2023/04/08 02:42:59;;;;;;;49.88;27.73;;;;;;;7.17;100.00;102147.63;5047061;28;20029;-63
2023/04/08 02:45:28;;;;;;;45.28;27.65;;;;;;;7.20;100.00;102152.69;5042955;28;20067;-64
2023/04/08 02:47:54;;;;;;;46.03;26.80;;;;;;;7.21;100.00;102157.03;5037283;28;20048;-63
2023/04/08 02:50:19;;;;;;;49.50;29.25;;;;;;;7.20;100.00;102156.16;5046476;28;20029;-63
2023/04/08 02:52:45;;;;;;;48.85;29.05;;;;;;;7.20;100.00;102152.69;5042106;28;20037;-63
2023/04/08 02:55:10;;;;;;;57.95;30.67;;;;;;;7.13;100.00;102158.41;5041926;28;20029;-64
2023/04/08 02:57:38;;;;;;;52.78;29.50;;;;;;;7.07;100.00;102158.81;5046540;28;20500;-63
2023/04/08 03:00:04;;;;;;;51.15;30.02;;;;;;;7.09;100.00;102161.34;5045134;28;20044;-63
2023/04/08 03:02:30;;;;;;;46.38;28.60;;;;;;;7.10;100.00;102163.03;5043221;28;20028;-64
2023/04/08 03:04:55;;;;;;;52.50;28.88;;;;;;;7.12;100.00;102161.13;5046545;28;20047;-63
2023/04/08 03:07:21;;;;;;;59.15;30.50;;;;;;;7.12;100.00;102164.59;5046076;28;20040;-63
2023/04/08 03:09:46;;;;;;;56.67;30.55;;;;;;;7.15;100.00;102157.44;5043504;28;20044;-63
2023/04/08 03:12:11;;;;;;;51.20;30.05;;;;;;;7.16;100.00;102159.13;5036408;28;20117;-64
2023/04/08 03:14:37;;;;;;;52.08;30.08;;;;;;;7.17;100.00;102158.19;5039554;28;20047;-63
2023/04/08 03:17:02;;;;;;;52.05;29.70;;;;;;;7.20;100.00;102157.97;5044380;28;20039;-63
2023/04/08 03:19:27;;;;;;;54.35;29.23;;;;;;;7.18;100.00;102158.06;5046272;28;20470;-64
2023/04/08 03:21:53;;;;;;;55.88;29.73;;;;;;;7.16;100.00;102157.34;5044865;28;20461;-64
2023/04/08 03:24:18;;;;;;;53.17;29.75;;;;;;;7.17;100.00;102158.19;5045596;28;20033;-63
2023/04/08 03:26:43;;;;;;;54.20;30.08;;;;;;;7.17;100.00;102163.44;5045652;28;20041;-64
2023/04/08 03:29:09;;;;;;;53.58;28.67;;;;;;;7.16;100.00;102161.78;5041743;28;20036;-64
2023/04/08 03:31:34;;;;;;;56.08;29.58;;;;;;;7.15;100.00;102160.91;5042025;28;20033;-63
2023/04/08 03:34:00;;;;;;;55.83;30.77;;;;;;;7.13;100.00;102163.69;5046012;28;20033;-64
2023/04/08 03:36:26;;;;;;;60.67;31.00;;;;;;;7.12;100.00;102161.97;5042618;28;20043;-64
2023/04/08 03:38:51;;;;;;;58.25;30.90;;;;;;;7.12;100.00;102161.97;5044580;28;20048;-64
2023/04/08 03:41:16;;;;;;;62.63;31.13;;;;;;;7.14;100.00;102164.50;5044156;28;20037;-64
2023/04/08 03:43:42;;;;;;;59.83;31.17;;;;;;;7.12;100.00;102156.69;5045473;28;20553;-63
2023/04/08 03:46:07;;;;;;;66.25;32.78;;;;;;;7.12;100.00;102156.69;5045362;28;20059;-64
2023/04/08 03:48:32;;;;;;;66.20;33.70;;;;;;;7.12;100.00;102156.69;5044859;28;20037;-63
2023/04/08 03:50:58;;;;;;;65.05;32.97;;;;;;;7.12;100.00;102161.97;5038588;28;20121;-64
2023/04/08 03:53:23;;;;;;;71.10;32.35;;;;;;;7.16;100.00;102164.41;5046379;28;20124;-64
2023/04/08 03:55:52;;;;;;;64.40;32.78;;;;;;;7.15;100.00;102165.38;5043417;28;20033;-64
2023/04/08 03:58:17;;;;;;;76.03;34.85;;;;;;;7.16;100.00;102167.91;5042902;28;20029;-64
2023/04/08 04:00:44;;;;;;;72.43;33.92;;;;;;;7.15;100.00;102168.00;5042472;28;20104;-64
2023/04/08 04:03:11;;;;;;;73.55;34.20;;;;;;;7.16;100.00;102167.91;5043111;28;20533;-64
2023/04/08 04:05:37;;;;;;;84.63;35.28;;;;;;;7.17;100.00;102168.72;5043039;28;20078;-63
2023/04/08 04:08:03;;;;;;;79.85;35.58;;;;;;;7.16;100.00;102167.91;5045221;28;20044;-64
2023/04/08 04:10:28;;;;;;;85.32;36.17;;;;;;;7.17;100.00;102169.59;5040603;28;20579;-64
2023/04/08 04:12:54;;;;;;;88.75;36.45;;;;;;;7.16;100.00;102169.69;5040944;28;20419;-64
2023/04/08 04:15:19;;;;;;;86.18;36.47;;;;;;;7.18;100.00;102170.41;5041830;28;20043;-64
2023/04/08 04:17:49;;;;;;;87.43;37.15;;;;;;;7.17;100.00;102176.66;5042534;28;20666;-63
2023/04/08 04:20:14;;;;;;;102.72;38.28;;;;;;;7.15;100.00;102175.91;5042402;28;20049;-64
2023/04/08 04:22:40;;;;;;;81.45;35.83;;;;;;;7.17;100.00;102179.28;5045448;28;20503;-64
2023/04/08 04:25:05;;;;;;;90.85;36.95;;;;;;;7.18;100.00;102183.59;5040638;28;20385;-64
2023/04/08 04:27:31;;;;;;;83.30;36.78;;;;;;;7.18;100.00;102180.97;5044961;28;20076;-64
2023/04/08 04:29:56;;;;;;;82.55;37.08;;;;;;;7.17;100.00;102187.19;5039178;28;20036;-64
2023/04/08 04:32:21;;;;;;;85.43;37.15;;;;;;;7.18;100.00;102187.09;5041918;28;20065;-64
2023/04/08 04:34:47;;;;;;;93.25;37.35;;;;;;;7.18;100.00;102196.78;5038944;28;20031;-64
2023/04/08 04:37:12;;;;;;;90.60;36.95;;;;;;;7.17;100.00;102190.69;5035779;28;20084;-64
2023/04/08 04:39:38;;;;;;;93.43;35.45;;;;;;;7.18;100.00;102194.16;5039070;28;20090;-64
2023/04/08 04:42:03;;;;;;;84.97;36.88;;;;;;;7.17;100.00;102195.09;5041297;28;20039;-64
2023/04/08 04:44:29;;;;;;;93.07;37.33;;;;;;;7.15;100.00;102207.56;5032959;28;20511;-64
2023/04/08 04:46:54;;;;;;;85.22;35.90;;;;;;;7.16;100.00;102207.47;5035774;28;20465;-64
2023/04/08 04:49:20;;;;;;;97.82;38.53;;;;;;;7.16;100.00;102211.91;5036849;28;20522;-64
2023/04/08 04:51:45;;;;;;;97.50;38.55;;;;;;;7.14;100.00;102214.63;5036155;28;20481;-64
2023/04/08 04:54:10;;;;;;;92.55;39.08;;;;;;;7.09;100.00;102220.22;5041074;28;20032;-64
2023/04/08 04:56:35;;;;;;;89.53;36.83;;;;;;;7.03;100.00;102218.00;5038741;28;20033;-64
2023/04/08 04:59:01;;;;;;;94.82;37.95;;;;;;;7.01;100.00;102217.28;5037865;28;20039;-64
2023/04/08 05:01:27;;;;;;;80.32;35.47;;;;;;;7.03;100.00;102220.66;5037022;28;20040;-64
2023/04/08 05:03:53;;;;;;;81.55;35.78;;;;;;;7.03;100.00;102225.91;5036312;28;20045;-64
2023/04/08 05:06:18;;;;;;;72.65;34.10;;;;;;;7.04;100.00;102227.59;5038225;28;20154;-64
2023/04/08 05:08:43;;;;;;;70.55;32.28;;;;;;;7.07;100.00;102226.56;5036970;28;20037;-64
2023/04/08 05:11:10;;;;;;;67.97;31.92;;;;;;;7.02;100.00;102213.69;5036026;28;20033;-64
2023/04/08 05:13:35;;;;;;;68.65;32.38;;;;;;;7.00;100.00;102220.84;5036048;28;20045;-64
2023/04/08 05:16:00;;;;;;;70.50;32.13;;;;;;;6.95;100.00;102225.56;5033085;28;20033;-64
2023/04/08 05:18:26;;;;;;;63.00;30.15;;;;;;;6.92;100.00;102231.94;5036930;28;20488;-64
2023/04/08 05:20:51;;;;;;;63.08;31.50;;;;;;;6.92;100.00;102233.72;5037280;28;20093;-64
2023/04/08 05:23:16;;;;;;;64.20;30.88;;;;;;;6.90;100.00;102235.63;5034399;28;20022;-64
2023/04/08 05:25:42;;;;;;;59.13;29.67;;;;;;;6.90;100.00;102246.16;5037266;28;20033;-64
2023/04/08 05:28:08;;;;;;;72.70;31.85;;;;;;;6.89;100.00;102241.81;5044012;28;20067;-64
2023/04/08 05:30:33;;;;;;;65.63;31.10;;;;;;;6.92;100.00;102244.25;5036579;28;20090;-64
2023/04/08 05:32:58;;;;;;;70.20;31.65;;;;;;;6.91;100.00;102242.56;5034531;28;20033;-64
2023/04/08 05:35:24;;;;;;;67.35;31.90;;;;;;;6.91;100.00;102242.56;5038709;28;20090;-64
2023/04/08 05:37:49;;;;;;;70.90;31.70;;;;;;;6.94;100.00;102242.34;5036907;28;20028;-64
2023/04/08 05:40:15;;;;;;;65.57;31.40;;;;;;;6.96;100.00;102240.47;5037705;28;20116;-64
2023/04/08 05:42:41;;;;;;;69.80;31.75;;;;;;;6.98;100.00;102255.25;5036743;28;20059;-64
2023/04/08 05:45:07;;;;;;;70.47;31.85;;;;;;;7.02;100.00;102249.75;5034957;28;20052;-64
2023/04/08 05:47:32;;;;;;;66.65;31.58;;;;;;;7.05;100.00;102250.38;5034816;28;20534;-64
2023/04/08 05:49:58;;;;;;;68.80;32.20;;;;;;;7.06;100.00;102252.06;5030241;28;20488;-61
2023/04/08 05:52:23;;;;;;;62.10;31.95;;;;;;;7.07;100.00;102253.78;5037935;28;20037;-64
2023/04/08 05:54:48;;;;;;;64.28;32.25;;;;;;;7.05;100.00;102255.66;5030094;28;20041;-64
2023/04/08 05:57:15;;;;;;;58.45;31.20;;;;;;;7.04;100.00;102258.41;5031898;28;20091;-64
2023/04/08 05:59:40;;;;;;;55.25;31.27;;;;;;;7.05;100.00;102266.22;5037772;28;20064;-64
2023/04/08 06:02:06;;;;;;;60.83;33.00;;;;;;;7.09;100.00;102267.72;5041044;28;20388;-64
2023/04/08 06:04:31;;;;;;;62.70;32.72;;;;;;;7.10;100.00;102264.13;5035960;28;20037;-64
2023/04/08 06:06:58;;;;;;;63.22;32.08;;;;;;;7.12;100.00;102266.66;5040147;28;20951;-64
2023/04/08 06:09:24;;;;;;;62.67;33.20;;;;;;;7.11;100.00;102265.81;5037986;28;20057;-64
2023/04/08 06:11:50;;;;;;;65.18;34.30;;;;;;;7.15;100.00;102269.06;5036566;28;20650;-64
2023/04/08 06:14:15;;;;;;;63.28;32.88;;;;;;;7.16;100.00;102277.84;5040079;28;20108;-64
2023/04/08 06:16:41;;;;;;;60.28;32.20;;;;;;;7.22;100.00;102272.16;5036551;28;20060;-64
2023/04/08 06:19:06;;;;;;;47.78;27.52;;;;;;;7.23;100.00;102279.13;5037709;28;20443;-64
2023/04/08 06:21:31;;;;;;;42.72;25.98;;;;;;;7.20;100.00;102281.97;5037878;28;20034;-64
2023/04/08 06:23:57;;;;;;;36.97;22.13;;;;;;;7.20;100.00;102274.88;5033336;28;20065;-63
2023/04/08 06:26:22;;;;;;;31.67;21.08;;;;;;;7.18;100.00;102286.50;5045814;28;20029;-63
2023/04/08 06:28:48;;;;;;;35.30;21.50;;;;;;;7.21;100.00;102287.13;5046812;28;20065;-64
2023/04/08 06:31:13;;;;;;;44.25;26.83;;;;;;;7.26;100.00;102289.47;5044870;28;20028;-64
2023/04/08 06:33:39;;;;;;;46.65;28.70;;;;;;;7.29;100.00;102299.81;5039862;28;20912;-64
2023/04/08 06:36:06;;;;;;;50.10;29.88;;;;;;;7.32;100.00;102294.34;5046957;28;20429;-63
2023/04/08 06:38:31;;;;;;;50.72;29.52;;;;;;;7.35;100.00;102304.66;5046684;28;20128;-64
2023/04/08 06:41:01;;;;;;;44.63;26.15;;;;;;;7.26;100.00;102294.75;5047335;28;20112;-64
2023/04/08 06:43:27;;;;;;;44.50;25.67;;;;;;;7.32;100.00;102310.19;5047432;28;20041;-64
2023/04/08 06:45:52;;;;;;;35.83;23.85;;;;;;;7.19;100.00;102302.22;5041179;28;20107;-64
2023/04/08 06:48:17;;;;;;;35.33;23.17;;;;;;;7.21;100.00;102308.22;5038776;28;20028;-64
2023/04/08 06:50:43;;;;;;;36.03;23.45;;;;;;;7.27;100.00;102307.00;5045623;28;20029;-64
2023/04/08 06:53:08;;;;;;;37.10;24.15;;;;;;;7.27;100.00;102307.00;5046667;28;20471;-63
2023/04/08 06:55:34;;;;;;;36.78;23.95;;;;;;;7.31;100.00;102321.69;5045613;28;20908;-64
2023/04/08 06:58:00;;;;;;;34.55;21.20;;;;;;;7.36;100.00;102316.09;5046001;28;20149;-64
2023/04/08 07:00:26;;;;;;;32.65;21.40;;;;;;;7.32;100.00;102315.44;5045852;28;20505;-64
2023/04/08 07:02:51;;;;;;;33.80;21.20;;;;;;;7.37;100.00;102313.34;5047181;28;20033;-64
2023/04/08 07:05:17;;;;;;;37.72;22.98;;;;;;;7.50;100.00;102328.34;5045273;28;20056;-64
2023/04/08 07:07:42;;;;;;;35.08;22.75;;;;;;;7.45;100.00;102335.72;5046509;28;20385;-64
2023/04/08 07:10:08;;;;;;;31.92;21.50;;;;;;;7.44;100.00;102329.59;5039519;28;20060;-64
2023/04/08 07:12:33;;;;;;;34.88;22.25;;;;;;;7.48;100.00;102338.16;5042603;28;20374;-64
2023/04/08 07:14:58;;;;;;;34.40;21.95;;;;;;;7.52;100.00;102334.38;5046408;28;20063;-64
2023/04/08 07:17:24;;;;;;;34.63;23.05;;;;;;;7.51;100.00;102340.59;5045091;28;20507;-64
2023/04/08 07:19:49;;;;;;;34.13;22.35;;;;;;;7.53;100.00;102346.59;5045286;28;20047;-64
2023/04/08 07:22:15;;;;;;;35.58;23.33;;;;;;;7.54;100.00;102350.94;5045633;28;20033;-64
2023/04/08 07:24:42;;;;;;;32.92;22.35;;;;;;;7.56;100.00;102349.06;5044335;28;20040;-64
2023/04/08 07:27:08;;;;;;;34.25;23.20;;;;;;;7.46;100.00;102343.53;5045492;28;20032;-64
2023/04/08 07:29:33;;;;;;;35.20;23.38;;;;;;;7.54;100.00;102361.50;5046303;28;20052;-64
2023/04/08 07:31:58;;;;;;;35.22;22.58;;;;;;;7.53;100.00;102359.81;5045648;28;20098;-64
2023/04/08 07:34:24;;;;;;;32.10;22.63;;;;;;;7.56;100.00;102358.75;5046222;28;20116;-64
2023/04/08 07:36:49;;;;;;;33.38;22.63;;;;;;;7.60;100.00;102360.25;5043951;28;20052;-64
2023/04/08 07:39:15;;;;;;;34.83;22.92;;;;;;;7.58;100.00;102357.72;5043236;28;20037;-64
2023/04/08 07:41:40;;;;;;;32.22;22.50;;;;;;;7.54;100.00;102369.41;5045972;28;20499;-65
2023/04/08 07:44:06;;;;;;;31.52;22.38;;;;;;;7.42;100.00;102367.59;5047071;28;20047;-64
2023/04/08 07:46:35;;;;;;;33.85;23.15;;;;;;;7.42;100.00;102367.59;5038621;28;20050;-64
2023/04/08 07:49:01;;;;;;;33.78;23.40;;;;;;;7.42;100.00;102362.31;5046507;28;20032;-64
2023/04/08 07:51:26;;;;;;;33.47;22.80;;;;;;;7.36;100.00;102364.41;5045191;28;20055;-64
2023/04/08 07:53:51;;;;;;;34.22;23.35;;;;;;;7.36;100.00;102367.06;5044450;28;20068;-64
2023/04/08 07:56:17;;;;;;;33.60;22.35;;;;;;;7.34;100.00;102358.41;5045964;28;20039;-64
2023/04/08 07:58:42;;;;;;;35.85;23.98;;;;;;;7.42;100.00;102378.16;5043976;28;20084;-64
2023/04/08 08:01:21;;;;;;;33.47;23.13;;;;;;;7.50;100.00;102381.97;5044537;28;20045;-63
2023/04/08 08:03:50;;;;;;;33.75;23.35;;;;;;;7.53;100.00;102381.78;5038078;28;20029;-64
2023/04/08 08:06:16;;;;;;;31.85;22.70;;;;;;;7.48;100.00;102381.25;5043400;28;20075;-64
2023/04/08 08:08:41;;;;;;;33.45;22.92;;;;;;;7.51;100.00;102385.47;5047866;28;20131;-64
2023/04/08 08:11:07;;;;;;;33.17;22.98;;;;;;;7.55;100.00;102384.28;5044474;28;20047;-63
2023/04/08 08:13:33;;;;;;;32.97;22.38;;;;;;;7.54;100.00;102393.16;5042715;28;20041;-64
2023/04/08 08:15:58;;;;;;;34.42;23.13;;;;;;;7.56;100.00;102395.72;5038781;28;20138;-65
2023/04/08 08:18:23;;;;;;;30.98;21.20;;;;;;;7.52;100.00;102393.31;5044745;28;20056;-64
2023/04/08 08:20:49;;;;;;;32.25;22.60;;;;;;;7.60;100.00;102397.22;5045509;28;20063;-64
2023/04/08 08:23:14;;;;;;;34.83;22.67;;;;;;;7.66;100.00;102402.91;5034663;28;20494;-65
2023/04/08 08:25:40;;;;;;;33.80;22.98;;;;;;;7.70;100.00;102400.06;5044837;28;20037;-65
2023/04/08 08:28:05;;;;;;;33.67;23.65;;;;;;;7.81;100.00;102400.19;5036316;28;20037;-65
2023/04/08 08:30:30;;;;;;;33.70;22.42;;;;;;;7.77;100.00;102410.13;5044116;28;20114;-64
2023/04/08 08:32:57;;;;;;;32.03;22.33;;;;;;;7.83;100.00;102411.47;5041675;28;20131;-64
2023/04/08 08:35:23;;;;;;;34.22;23.15;;;;;;;7.77;100.00;102406.63;5044171;28;20422;-64
2023/04/08 08:37:48;;;;;;;36.20;23.35;;;;;;;7.80;100.00;102419.63;5043382;28;20028;-64
2023/04/08 08:40:14;;;;;;;36.47;24.65;;;;;;;7.79;100.00;102410.84;5044675;28;20036;-64
2023/04/08 08:42:40;;;;;;;35.50;24.10;;;;;;;7.83;100.00;102419.41;5045244;28;20119;-63
2023/04/08 08:45:07;;;;;;;34.97;23.75;;;;;;;7.97;100.00;102414.97;5040157;28;20037;-64
2023/04/08 08:47:32;;;;;;;38.08;24.48;;;;;;;7.88;100.00;102417.31;5046026;28;20174;-64
2023/04/08 08:49:57;;;;;;;36.15;24.60;;;;;;;7.86;100.00;102419.22;5043521;28;20111;-64
2023/04/08 08:52:23;;;;;;;36.67;24.10;;;;;;;7.86;100.00;102424.50;5045323;28;20395;-64
2023/04/08 08:54:56;;;;;;;36.03;23.85;;;;;;;7.80;100.00;102422.28;5044355;28;20374;-64
2023/04/08 08:57:21;;;;;;;36.95;25.17;;;;;;;7.93;100.00;102433.69;5040540;28;20384;-64
2023/04/08 08:59:47;;;;;;;34.97;24.13;;;;;;;7.94;100.00;102422.16;5041673;28;20036;-64
2023/04/08 09:02:31;;;;;;;38.38;25.65;;;;;;;8.11;100.00;102417.53;5044943;28;20055;-64
2023/04/08 09:05:04;;;;;;;39.05;26.13;;;;;;;8.13;100.00;102420.91;5035105;28;20548;-64
2023/04/08 09:07:39;;;;;;;38.58;26.20;;;;;;;8.06;100.00;102430.22;5035888;28;20500;-64
2023/04/08 09:10:05;;;;;;;41.53;26.90;;;;;;;8.03;100.00;102430.41;5044727;28;20017;-64
2023/04/08 09:12:30;;;;;;;42.28;27.67;;;;;;;7.99;100.00;102434.22;5040516;28;20504;-64
2023/04/08 09:15:02;;;;;;;43.53;28.70;;;;;;;7.90;100.00;102430.41;5043643;28;20471;-65
2023/04/08 09:17:36;;;;;;;41.13;27.73;;;;;;;7.91;100.00;102438.22;5039690;28;20029;-65
2023/04/08 09:20:10;;;;;;;41.78;28.80;;;;;;;7.90;100.00;102439.16;5029510;28;20033;-63
2023/04/08 09:22:59;;;;;;;42.67;29.10;;;;;;;7.86;100.00;102443.00;5039094;28;21154;-64
2023/04/08 09:25:26;;;;;;;41.78;28.63;;;;;;;7.79;100.00;102449.59;5035331;28;20029;-64
2023/04/08 09:27:52;;;;;;;41.38;29.13;;;;;;;7.89;100.00;102455.97;5043963;28;20136;-64
2023/04/08 09:30:19;;;;;;;42.38;27.88;;;;;;;7.91;100.00;102448.78;5042459;28;20061;-64
2023/04/08 09:32:52;;;;;;;40.80;27.63;;;;;;;7.84;100.00;102452.78;5039257;28;20503;-65
2023/04/08 09:35:20;;;;;;;43.33;28.02;;;;;;;7.83;100.00;102459.03;5037742;28;20044;-67
2023/04/08 09:37:46;;;;;;;39.17;27.67;;;;;;;7.94;100.00;102453.88;5034007;28;20350;-66
2023/04/08 09:40:14;;;;;;;37.38;26.27;;;;;;;8.04;100.00;102456.72;5034557;28;20025;-66
2023/04/08 09:42:51;;;;;;;36.47;25.75;;;;;;;8.01;100.00;102453.44;5039862;28;20116;-65
2023/04/08 09:45:17;;;;;;;35.38;25.35;;;;;;;8.08;100.00;102454.72;5033578;28;20063;-65
2023/04/08 09:48:07;;;;;;;35.95;25.13;;;;;;;8.04;100.00;102458.53;5035159;28;20040;-65
2023/04/08 09:50:39;;;;;;;38.83;27.83;;;;;;;7.90;100.00;102462.94;5036121;28;20036;-66
2023/04/08 09:53:29;;;;;;;34.28;25.90;;;;;;;7.97;100.00;102465.16;5037087;28;20055;-65
2023/04/08 09:55:57;;;;;;;36.20;25.75;;;;;;;8.00;100.00;102462.34;5038619;28;20115;-64
2023/04/08 09:58:38;;;;;;;33.53;24.45;;;;;;;8.09;100.00;102466.97;5038987;28;20039;-63
2023/04/08 10:01:05;;;;;;;32.53;24.58;;;;;;;8.08;100.00;102466.16;5042631;28;20033;-63
2023/04/08 10:03:39;;;;;;;32.33;24.35;;;;;;;8.25;100.00;102465.94;5044456;28;20025;-64
2023/04/08 10:06:07;;;;;;;33.35;25.33;;;;;;;8.17;100.00;102462.03;5041859;28;20029;-63
2023/04/08 10:08:32;;;;;;;31.90;24.10;;;;;;;8.24;100.00;102465.06;5044413;28;20036;-64
2023/04/08 10:10:58;;;;;;;33.90;25.55;;;;;;;8.19;100.00;102473.31;5041315;28;20029;-64
2023/04/08 10:13:27;;;;;;;33.08;24.98;;;;;;;8.22;100.00;102469.63;5035240;28;20045;-64
2023/04/08 10:16:16;;;;;;;31.50;24.77;;;;;;;8.35;100.00;102469.63;5043422;28;20484;-63
2023/04/08 10:18:43;;;;;;;31.77;24.17;;;;;;;8.30;100.00;102469.09;5033250;28;20033;-64
2023/04/08 10:21:30;;;;;;;31.10;24.42;;;;;;;8.42;100.00;102472.69;5040083;28;20029;-63
2023/04/08 10:24:04;;;;;;;32.50;25.00;;;;;;;8.42;100.00;102470.91;5043228;28;20396;-63
2023/04/08 10:26:35;;;;;;;30.52;23.90;;;;;;;8.48;100.00;102465.19;5041828;28;20040;-63
2023/04/08 10:29:26;;;;;;;30.00;23.05;;;;;;;8.60;100.00;102467.94;5037625;28;20068;-62
2023/04/08 10:31:52;;;;;;;30.02;23.40;;;;;;;8.50;100.00;102469.50;5036277;28;20072;-62
2023/04/08 10:34:23;;;;;;;29.42;23.10;;;;;;;8.69;100.00;102464.63;5044017;28;20493;-62
2023/04/08 10:36:49;;;;;;;30.33;23.45;;;;;;;8.80;100.00;102460.38;5041806;28;20055;-62
2023/04/08 10:39:15;;;;;;;33.10;24.75;;;;;;;8.99;100.00;102460.75;5042427;28;20484;-61
2023/04/08 10:41:45;;;;;;;30.30;24.50;;;;;;;9.16;100.00;102461.34;5040734;28;20029;-62
2023/04/08 10:44:24;;;;;;;31.42;25.00;;;;;;;9.38;100.00;102455.31;5043752;28;20028;-62
2023/04/08 10:46:51;;;;;;;29.65;23.70;;;;;;;9.53;100.00;102458.59;5046678;28;20053;-62
2023/04/08 10:49:17;;;;;;;30.63;24.13;;;;;;;9.57;99.88;102458.41;5045078;28;20036;-62
2023/04/08 10:51:43;;;;;;;29.95;23.02;;;;;;;9.45;98.55;102458.34;5046826;28;20037;-62
2023/04/08 10:54:16;;;;;;;29.00;23.35;;;;;;;9.52;96.89;102459.56;5046738;28;20118;-62
2023/04/08 10:56:50;;;;;;;32.00;23.80;;;;;;;9.61;98.39;102457.19;5042511;28;20036;-62
2023/04/08 10:59:29;;;;;;;29.00;22.90;;;;;;;9.69;97.57;102444.22;5039879;28;20060;-62
2023/04/08 11:01:55;;;;;;;29.85;24.42;;;;;;;9.57;97.57;102448.63;5042089;28;20128;-62
2023/04/08 11:04:22;;;;;;;28.83;23.35;;;;;;;9.60;96.32;102451.06;5036517;28;20666;-63
2023/04/08 11:06:48;;;;;;;30.25;23.17;;;;;;;9.32;92.99;102449.63;5043153;28;20091;-62
2023/04/08 11:09:14;;;;;;;30.17;24.40;;;;;;;9.38;95.31;102446.53;5046489;28;20411;-62